createdAt,value
2022-08-07T00:02:36.593Z,26.26
2022-08-07T00:04:44.751Z,26.38
2022-08-07T00:07:09.374Z,26.45
2022-08-07T00:09:33.759Z,26.57
2022-08-07T00:11:59.075Z,26.65
2022-08-07T00:14:25.208Z,26.47
2022-08-07T00:16:48.667Z,26.40
2022-08-07T00:19:21.527Z,26.30
2022-08-07T00:21:56.475Z,25.98
2022-08-07T00:24:20.811Z,26.20
2022-08-07T00:26:58.970Z,26.38
2022-08-07T00:29:31.411Z,26.16
2022-08-07T00:31:55.393Z,26.25
2022-08-07T00:34:18.447Z,26.32
2022-08-07T00:36:44.856Z,26.51
2022-08-07T00:39:07.927Z,26.22
2022-08-07T00:41:45.263Z,25.90
2022-08-07T00:44:16.941Z,25.90
2022-08-07T00:46:41.802Z,25.90
2022-08-07T00:49:06.526Z,26.02
2022-08-07T00:51:58.399Z,26.07
2022-08-07T00:54:15.109Z,26.13
2022-08-07T00:56:44.644Z,26.10
2022-08-07T00:59:12.668Z,26.03
2022-08-07T01:01:41.524Z,25.91
2022-08-07T01:04:09.402Z,25.74
2022-08-07T01:06:33.706Z,25.72
2022-08-07T01:09:00.711Z,25.69
2022-08-07T01:12:10.184Z,25.92
2022-08-07T01:14:07.020Z,25.85
2022-08-07T01:16:31.865Z,25.73
2022-08-07T01:18:55.935Z,25.74
2022-08-07T01:21:26.083Z,25.59
2022-08-07T01:23:53.174Z,25.60
2022-08-07T01:26:16.798Z,25.65
2022-08-07T01:28:45.719Z,25.61
2022-08-07T01:31:11.025Z,25.68
2022-08-07T01:33:55.816Z,25.71
2022-08-07T01:36:33.880Z,25.48
2022-08-07T01:39:10.189Z,25.55
2022-08-07T01:41:35.629Z,25.50
2022-08-07T01:43:59.989Z,25.40
2022-08-07T01:46:25.906Z,25.52
2022-08-07T01:48:50.950Z,25.57
2022-08-07T01:52:02.471Z,25.62
2022-08-07T01:54:12.594Z,25.53
2022-08-07T01:56:43.007Z,25.38
2022-08-07T01:59:21.460Z,25.31
2022-08-07T02:02:00.170Z,25.21
2022-08-07T02:04:28.809Z,25.14
2022-08-07T02:06:57.381Z,25.24
2022-08-07T02:09:51.745Z,25.31
2022-08-07T02:12:18.192Z,25.43
2022-08-07T02:14:46.105Z,25.19
2022-08-07T02:17:24.761Z,25.19
2022-08-07T02:20:07.617Z,25.11
2022-08-07T02:22:37.311Z,25.36
2022-08-07T02:25:07.164Z,25.26
2022-08-07T02:27:37.162Z,25.20
2022-08-07T02:30:07.473Z,25.21
2022-08-07T02:32:32.792Z,25.08
2022-08-07T02:34:55.954Z,25.24
2022-08-07T02:37:22.339Z,25.33
2022-08-07T02:40:11.673Z,25.26
2022-08-07T02:42:30.425Z,25.36
2022-08-07T02:44:54.983Z,25.35
2022-08-07T02:47:23.571Z,25.31
2022-08-07T02:49:57.414Z,25.08
2022-08-07T02:52:32.141Z,25.00
2022-08-07T02:54:56.006Z,25.11
2022-08-07T02:57:19.645Z,25.12
2022-08-07T03:00:00.839Z,24.96
2022-08-07T03:02:28.567Z,25.23
2022-08-07T03:04:52.280Z,25.07
2022-08-07T03:07:16.744Z,25.10
2022-08-07T03:09:48.237Z,25.00
2022-08-07T03:12:21.657Z,24.79
2022-08-07T03:14:52.115Z,24.88
2022-08-07T03:17:16.168Z,24.89
2022-08-07T03:19:40.171Z,24.90
2022-08-07T03:22:06.113Z,24.81
2022-08-07T03:24:30.132Z,24.80
2022-08-07T03:26:59.496Z,24.78
2022-08-07T03:29:28.714Z,24.79
2022-08-07T03:31:53.510Z,24.93
2022-08-07T03:34:22.165Z,24.74
2022-08-07T03:36:52.847Z,24.87
2022-08-07T03:39:17.475Z,25.05
2022-08-07T03:42:00.844Z,25.04
2022-08-07T03:44:31.811Z,24.86
2022-08-07T03:47:13.506Z,24.99
2022-08-07T03:49:39.667Z,25.02
2022-08-07T03:52:05.716Z,25.04
2022-08-07T03:54:36.344Z,25.02
2022-08-07T03:58:33.428Z,25.10
2022-08-07T04:00:02.587Z,25.10
2022-08-07T04:02:29.010Z,25.22
2022-08-07T04:04:53.003Z,25.21
2022-08-07T04:07:17.696Z,25.29
2022-08-07T04:09:45.465Z,25.05
2022-08-07T04:12:26.826Z,24.83
2022-08-07T04:14:52.951Z,24.98
2022-08-07T04:17:21.451Z,25.03
2022-08-07T04:19:54.561Z,25.17
2022-08-07T04:22:22.947Z,25.10
2022-08-07T04:24:47.057Z,25.19
2022-08-07T04:27:20.468Z,25.25
2022-08-07T04:30:01.459Z,24.90
2022-08-07T04:32:35.674Z,25.05
2022-08-07T04:35:01.818Z,25.14
2022-08-07T04:37:28.805Z,25.20
2022-08-07T04:39:52.473Z,25.21
2022-08-07T04:42:16.168Z,25.19
2022-08-07T04:44:54.350Z,25.17
2022-08-07T04:48:01.446Z,25.26
2022-08-07T04:50:09.388Z,25.29
2022-08-07T04:52:51.011Z,25.35
2022-08-07T04:58:11.029Z,25.45
2022-08-07T04:58:13.068Z,25.41
2022-08-07T05:00:56.514Z,25.49
2022-08-07T05:03:38.793Z,25.56
2022-08-07T05:06:16.663Z,25.63
2022-08-07T05:09:00.700Z,25.68
2022-08-07T05:11:58.704Z,25.66
2022-08-07T05:14:52.440Z,25.73
2022-08-07T05:16:57.952Z,25.73
2022-08-07T05:19:32.637Z,25.79
2022-08-07T05:22:10.152Z,25.78
2022-08-07T05:24:40.644Z,25.82
2022-08-07T05:27:04.992Z,25.85
2022-08-07T05:29:48.034Z,25.83
2022-08-07T05:32:11.618Z,25.84
2022-08-07T05:34:34.622Z,25.91
2022-08-07T05:36:58.017Z,25.87
2022-08-07T05:40:13.425Z,25.91
2022-08-07T05:42:34.654Z,26.00
2022-08-07T05:45:14.081Z,26.03
2022-08-07T05:48:01.830Z,26.07
2022-08-07T05:50:33.944Z,26.10
2022-08-07T05:52:56.949Z,26.14
2022-08-07T05:55:21.625Z,26.17
2022-08-07T05:57:46.336Z,26.17
2022-08-07T06:00:16.013Z,26.18
2022-08-07T06:02:46.297Z,26.20
2022-08-07T06:05:15.567Z,26.22
2022-08-07T06:08:14.775Z,26.27
2022-08-07T06:10:25.757Z,26.31
2022-08-07T06:12:49.143Z,26.33
2022-08-07T06:15:15.990Z,26.31
2022-08-07T06:17:41.208Z,26.32
2022-08-07T06:20:32.079Z,26.36
2022-08-07T06:23:04.112Z,26.39
2022-08-07T06:25:54.355Z,26.43
2022-08-07T06:28:18.454Z,26.47
2022-08-07T06:30:52.962Z,26.53
2022-08-07T06:33:18.001Z,26.51
2022-08-07T06:35:45.543Z,26.55
2022-08-07T06:38:19.953Z,26.58
2022-08-07T06:40:49.957Z,26.61
2022-08-07T06:43:21.229Z,26.61
2022-08-07T06:46:01.525Z,26.63
2022-08-07T06:48:25.448Z,26.60
2022-08-07T06:50:48.820Z,26.63
2022-08-07T06:53:18.809Z,26.68
2022-08-07T06:56:00.856Z,26.73
2022-08-07T06:58:28.760Z,26.75
2022-08-07T07:00:58.521Z,26.77
2022-08-07T07:03:26.451Z,26.79
2022-08-07T07:06:06.297Z,26.77
2022-08-07T07:08:34.519Z,26.81
2022-08-07T07:10:57.917Z,26.84
2022-08-07T07:13:55.348Z,26.83
2022-08-07T07:16:09.070Z,26.84
2022-08-07T07:18:47.967Z,26.86
2022-08-07T07:21:13.477Z,26.89
2022-08-07T07:24:08.028Z,26.91
2022-08-07T07:26:35.579Z,26.92
2022-08-07T07:29:57.507Z,26.93
2022-08-07T07:31:46.586Z,26.87
2022-08-07T07:34:10.547Z,26.89
2022-08-07T07:36:40.496Z,26.92
2022-08-07T07:39:03.905Z,26.95
2022-08-07T07:41:31.034Z,26.99
2022-08-07T07:44:14.568Z,26.98
2022-08-07T07:46:57.277Z,27.00
2022-08-07T07:50:35.668Z,26.99
2022-08-07T07:52:09.428Z,27.03
2022-08-07T07:54:33.103Z,27.10
2022-08-07T07:56:57.290Z,27.14
2022-08-07T07:59:51.681Z,27.16
2022-08-07T08:02:10.532Z,27.13
2022-08-07T08:04:34.004Z,27.14
2022-08-07T08:07:00.567Z,27.18
2022-08-07T08:09:29.201Z,27.22
2022-08-07T08:12:03.250Z,27.23
2022-08-07T08:14:29.483Z,27.25
2022-08-07T08:16:52.780Z,27.23
2022-08-07T08:20:23.137Z,27.31
2022-08-07T08:22:17.723Z,27.28
2022-08-07T08:25:18.615Z,27.32
2022-08-07T08:27:55.978Z,27.35
2022-08-07T08:30:21.361Z,27.33
2022-08-07T08:32:49.059Z,27.32
2022-08-07T08:35:13.430Z,27.29
2022-08-07T08:38:01.208Z,27.32
2022-08-07T08:40:28.573Z,27.29
2022-08-07T08:42:53.834Z,27.36
2022-08-07T08:45:19.506Z,27.38
2022-08-07T08:47:52.317Z,27.45
2022-08-07T08:50:34.918Z,27.41
2022-08-07T08:53:04.633Z,27.42
2022-08-07T08:55:54.914Z,27.40
2022-08-07T08:58:13.258Z,27.40
2022-08-07T09:00:48.347Z,27.45
2022-08-07T09:03:16.649Z,27.54
2022-08-07T09:05:44.861Z,27.50
2022-08-07T09:08:12.560Z,27.52
2022-08-07T09:10:48.247Z,27.52
2022-08-07T09:13:15.001Z,27.51
2022-08-07T09:16:25.688Z,27.50
2022-08-07T09:18:35.006Z,27.52
2022-08-07T09:21:02.594Z,27.52
2022-08-07T09:24:32.925Z,27.53
2022-08-07T09:26:17.176Z,27.63
2022-08-07T09:30:05.813Z,27.60
2022-08-07T09:31:38.470Z,27.55
2022-08-07T09:34:08.237Z,27.56
2022-08-07T09:36:35.792Z,27.56
2022-08-07T09:39:06.338Z,27.56
2022-08-07T09:42:03.066Z,27.56
2022-08-07T09:44:46.566Z,27.59
2022-08-07T09:47:51.178Z,27.62
2022-08-07T09:50:18.625Z,27.65
2022-08-07T09:52:43.864Z,27.66
2022-08-07T09:55:16.994Z,27.67
2022-08-07T09:58:15.914Z,27.69
2022-08-07T10:00:44.907Z,27.67
2022-08-07T10:04:04.883Z,27.62
2022-08-07T10:06:17.973Z,27.62
2022-08-07T10:09:06.239Z,27.63
2022-08-07T10:12:02.402Z,27.57
2022-08-07T10:14:30.337Z,27.66
2022-08-07T10:17:13.419Z,27.67
2022-08-07T10:19:41.963Z,27.65
2022-08-07T10:22:24.939Z,27.67
2022-08-07T10:25:12.575Z,27.68
2022-08-07T10:27:46.164Z,27.65
2022-08-07T10:30:12.241Z,27.60
2022-08-07T10:32:52.646Z,27.61
2022-08-07T10:35:20.403Z,27.68
2022-08-07T10:38:15.458Z,27.65
2022-08-07T10:40:38.834Z,27.64
2022-08-07T10:43:03.713Z,27.59
2022-08-07T10:45:45.084Z,27.60
2022-08-07T10:48:35.220Z,27.60
2022-08-07T10:50:59.610Z,27.61
2022-08-07T10:53:41.970Z,27.64
2022-08-07T10:56:11.163Z,27.62
2022-08-07T10:58:59.375Z,27.59
2022-08-07T11:01:35.186Z,27.62
2022-08-07T11:04:31.455Z,27.65
2022-08-07T11:06:56.745Z,27.67
2022-08-07T11:10:07.077Z,27.63
2022-08-07T11:12:08.354Z,27.68
2022-08-07T11:14:44.398Z,27.71
2022-08-07T11:17:23.568Z,27.68
2022-08-07T11:20:03.567Z,27.75
2022-08-07T11:22:38.224Z,27.72
2022-08-07T11:25:12.603Z,27.67
2022-08-07T11:28:03.283Z,27.70
2022-08-07T11:30:29.087Z,27.71
2022-08-07T11:33:08.070Z,27.70
2022-08-07T11:35:59.831Z,27.73
2022-08-07T11:38:22.107Z,27.73
2022-08-07T11:40:57.077Z,27.72
2022-08-07T11:43:29.451Z,27.71
2022-08-07T11:46:07.818Z,27.67
2022-08-07T11:48:40.569Z,27.71
2022-08-07T11:51:10.728Z,27.69
2022-08-07T11:54:01.771Z,27.72
2022-08-07T11:56:43.118Z,27.69
2022-08-07T12:00:07.814Z,27.72
2022-08-07T12:01:59.643Z,27.69
2022-08-07T12:04:39.562Z,27.69
2022-08-07T12:07:10.145Z,27.71
2022-08-07T12:09:46.116Z,27.68
2022-08-07T12:12:12.203Z,27.67
2022-08-07T12:14:37.822Z,27.73
2022-08-07T12:17:01.890Z,27.74
2022-08-07T12:19:35.526Z,27.77
2022-08-07T12:22:37.310Z,27.76
2022-08-07T12:26:21.961Z,27.74
2022-08-07T12:28:09.233Z,27.74
2022-08-07T12:30:34.299Z,27.76
2022-08-07T12:32:59.594Z,27.72
2022-08-07T12:35:24.045Z,27.71
2022-08-07T12:38:10.016Z,27.73
2022-08-07T12:40:48.921Z,27.75
2022-08-07T12:44:02.110Z,27.77
2022-08-07T12:46:01.225Z,27.81
2022-08-07T12:48:41.363Z,27.79
2022-08-07T12:51:17.714Z,27.77
2022-08-07T12:54:02.763Z,27.79
2022-08-07T12:56:26.750Z,27.75
2022-08-07T12:58:53.281Z,27.77
2022-08-07T13:01:28.210Z,27.76
2022-08-07T13:04:31.627Z,27.80
2022-08-07T13:07:18.004Z,27.83
2022-08-07T13:10:38.050Z,27.82
2022-08-07T13:13:03.569Z,27.86
2022-08-07T13:15:31.984Z,27.86
2022-08-07T13:17:59.371Z,27.84
2022-08-07T13:20:27.527Z,27.88
2022-08-07T13:22:52.671Z,27.89
2022-08-07T13:25:29.029Z,27.91
2022-08-07T13:28:12.413Z,27.87
2022-08-07T13:30:40.285Z,27.88
2022-08-07T13:34:30.878Z,27.89
2022-08-07T13:36:01.372Z,27.94
2022-08-07T13:38:29.186Z,27.92
2022-08-07T13:40:56.130Z,27.90
2022-08-07T13:43:22.541Z,27.93
2022-08-07T13:46:10.873Z,28.01
2022-08-07T13:48:34.731Z,28.01
2022-08-07T13:51:01.758Z,28.09
2022-08-07T13:53:59.651Z,28.03
2022-08-07T13:56:20.208Z,28.11
2022-08-07T13:59:02.318Z,28.19
2022-08-07T14:01:33.345Z,28.08
2022-08-07T14:04:14.251Z,28.07
2022-08-07T14:06:39.003Z,28.06
2022-08-07T14:09:04.528Z,28.09
2022-08-07T14:11:29.157Z,28.05
2022-08-07T14:14:12.716Z,28.05
2022-08-07T14:16:41.461Z,28.03
2022-08-07T14:19:17.857Z,28.04
2022-08-07T14:22:02.997Z,28.14
2022-08-07T14:24:34.585Z,28.14
2022-08-07T14:26:58.941Z,28.11
2022-08-07T14:30:07.539Z,28.12
2022-08-07T14:32:09.617Z,28.10
2022-08-07T14:34:45.753Z,28.06
2022-08-07T14:37:16.105Z,28.11
2022-08-07T14:40:17.552Z,28.09
2022-08-07T14:42:31.242Z,28.13
2022-08-07T14:44:59.777Z,28.09
2022-08-07T14:47:25.879Z,28.08
2022-08-07T14:49:59.403Z,28.04
2022-08-07T14:55:05.908Z,28.00
2022-08-07T14:57:58.584Z,28.00
2022-08-07T15:00:29.658Z,27.98
2022-08-07T15:02:56.655Z,27.96
2022-08-07T15:05:23.453Z,27.99
2022-08-07T15:10:30.541Z,27.99
2022-08-07T15:12:54.940Z,27.99
2022-08-07T15:15:23.762Z,27.99
2022-08-07T15:20:54.586Z,27.97
2022-08-07T15:25:59.959Z,27.95
2022-08-07T15:28:32.950Z,27.95
2022-08-07T15:31:05.778Z,27.95
2022-08-07T15:33:33.394Z,27.97
2022-08-07T15:38:58.507Z,27.95
2022-08-07T15:44:07.352Z,27.93
2022-08-07T15:49:15.154Z,27.94
2022-08-07T15:54:21.032Z,27.94
2022-08-07T15:56:48.277Z,27.91
2022-08-07T15:59:16.492Z,27.92
2022-08-07T16:01:40.529Z,27.91
2022-08-07T16:04:03.849Z,27.92
2022-08-07T16:06:40.219Z,27.92
2022-08-07T16:09:03.928Z,27.91
2022-08-07T16:11:41.506Z,27.91
2022-08-07T16:14:08.990Z,27.89
2022-08-07T16:16:57.212Z,27.91
2022-08-07T16:19:42.531Z,27.88
2022-08-07T16:22:54.463Z,27.89
2022-08-07T16:25:54.935Z,27.88
2022-08-07T16:30:07.438Z,27.87
2022-08-07T16:30:58.118Z,27.89
2022-08-07T16:34:01.437Z,27.88
2022-08-07T16:36:22.274Z,27.87
2022-08-07T16:39:06.090Z,27.85
2022-08-07T16:41:54.143Z,27.85
2022-08-07T16:44:46.967Z,27.87
2022-08-07T16:47:49.668Z,27.91
2022-08-07T16:50:37.215Z,27.92
2022-08-07T16:53:20.634Z,27.90
2022-08-07T16:55:53.537Z,27.94
2022-08-07T16:58:17.771Z,27.90
2022-08-07T17:00:42.728Z,27.87
2022-08-07T17:03:11.163Z,27.88
2022-08-07T17:06:29.001Z,27.86
2022-08-07T17:09:09.277Z,27.85
2022-08-07T17:11:27.946Z,27.82
2022-08-07T17:14:18.502Z,27.83
2022-08-07T17:16:45.838Z,27.83
2022-08-07T17:20:00.726Z,27.80
2022-08-07T17:22:07.200Z,27.80
2022-08-07T17:24:37.386Z,27.76
2022-08-07T17:27:05.312Z,27.74
2022-08-07T17:30:14.385Z,27.74
2022-08-07T17:32:52.460Z,27.75
2022-08-07T17:35:51.369Z,27.73
2022-08-07T17:38:05.854Z,27.69
2022-08-07T17:40:36.011Z,27.68
2022-08-07T17:43:03.517Z,27.69
2022-08-07T17:45:39.312Z,27.71
2022-08-07T17:48:11.093Z,27.69
2022-08-07T17:50:42.544Z,27.67
2022-08-07T17:53:23.542Z,27.63
2022-08-07T17:56:06.105Z,27.61
2022-08-07T17:58:34.277Z,27.59
2022-08-07T18:00:57.790Z,27.60
2022-08-07T18:03:25.534Z,27.59
2022-08-07T18:06:03.435Z,27.56
2022-08-07T18:08:31.207Z,27.53
2022-08-07T18:11:53.741Z,27.52
2022-08-07T18:13:40.758Z,27.54
2022-08-07T18:16:05.140Z,27.52
2022-08-07T18:18:46.224Z,27.52
2022-08-07T18:21:37.188Z,27.54
2022-08-07T18:24:01.978Z,27.52
2022-08-07T18:26:40.658Z,27.53
2022-08-07T18:29:05.368Z,27.53
2022-08-07T18:31:51.221Z,27.50
2022-08-07T18:34:37.598Z,27.45
2022-08-07T18:37:09.367Z,27.43
2022-08-07T18:40:07.124Z,27.48
2022-08-07T18:42:27.775Z,27.48
2022-08-07T18:47:44.475Z,27.48
2022-08-07T18:50:40.463Z,27.46
2022-08-07T18:53:12.847Z,27.45
2022-08-07T18:55:42.408Z,27.40
2022-08-07T18:58:15.119Z,27.39
2022-08-07T19:00:43.741Z,27.40
2022-08-07T19:03:18.963Z,27.42
2022-08-07T19:06:04.760Z,27.39
2022-08-07T19:08:30.157Z,27.39
2022-08-07T19:10:59.520Z,27.38
2022-08-07T19:13:24.741Z,27.39
2022-08-07T19:16:02.582Z,27.40
2022-08-07T19:18:34.842Z,27.39
2022-08-07T19:21:08.960Z,27.34
2022-08-07T19:23:58.394Z,27.35
2022-08-07T19:26:23.929Z,27.36
2022-08-07T19:30:54.294Z,27.31
2022-08-07T19:32:08.035Z,27.32
2022-08-07T19:34:33.755Z,27.30
2022-08-07T19:37:10.194Z,27.29
2022-08-07T19:39:57.389Z,27.31
2022-08-07T19:42:24.477Z,27.29
2022-08-07T19:44:48.359Z,27.30
2022-08-07T19:47:11.987Z,27.28
2022-08-07T19:49:57.703Z,27.28
2022-08-07T19:52:26.009Z,27.29
2022-08-07T19:54:56.194Z,27.26
2022-08-07T19:58:00.184Z,27.27
2022-08-07T20:00:10.126Z,27.27
2022-08-07T20:02:34.572Z,27.24
2022-08-07T20:04:58.012Z,27.23
2022-08-07T20:07:46.364Z,27.28
2022-08-07T20:10:37.234Z,27.26
2022-08-07T20:12:53.937Z,27.26
2022-08-07T20:15:22.118Z,27.22
2022-08-07T20:17:45.562Z,27.22
2022-08-07T20:20:26.715Z,27.22
2022-08-07T20:22:59.203Z,27.22
2022-08-07T20:25:24.418Z,27.20
2022-08-07T20:27:54.034Z,27.23
2022-08-07T20:30:21.853Z,27.22
2022-08-07T20:32:46.662Z,27.22
2022-08-07T20:35:11.469Z,27.25
2022-08-07T20:37:58.249Z,27.30
2022-08-07T20:40:32.830Z,27.29
2022-08-07T20:42:57.983Z,27.30
2022-08-07T20:45:33.208Z,27.29
2022-08-07T20:48:05.921Z,27.25
2022-08-07T20:50:31.933Z,27.25
2022-08-07T20:52:55.156Z,27.27
2022-08-07T20:55:23.605Z,27.24
2022-08-07T20:58:03.401Z,27.29
2022-08-07T21:00:31.833Z,27.23
2022-08-07T21:03:02.057Z,27.24
2022-08-07T21:05:51.380Z,27.17
2022-08-07T21:08:09.278Z,27.23
2022-08-07T21:10:33.024Z,27.21
2022-08-07T21:12:59.174Z,27.22
2022-08-07T21:15:47.568Z,27.20
2022-08-07T21:18:20.536Z,27.18
2022-08-07T21:20:56.082Z,27.19
2022-08-07T21:23:20.930Z,27.20
2022-08-07T21:25:56.932Z,27.18
2022-08-07T21:28:48.324Z,27.16
2022-08-07T21:31:10.402Z,27.17
2022-08-07T21:33:41.358Z,27.15
2022-08-07T21:36:11.959Z,27.13
2022-08-07T21:38:54.970Z,27.08
2022-08-07T21:41:20.438Z,27.13
2022-08-07T21:43:56.674Z,27.13
2022-08-07T21:46:25.285Z,27.14
2022-08-07T21:48:57.550Z,27.14
2022-08-07T21:51:25.170Z,27.11
2022-08-07T21:53:53.005Z,27.11
2022-08-07T21:56:36.253Z,27.11
2022-08-07T21:59:02.411Z,27.11
2022-08-07T22:02:07.451Z,27.10
2022-08-07T22:04:10.541Z,26.93
2022-08-07T22:06:34.792Z,27.00
2022-08-07T22:09:00.905Z,26.92
2022-08-07T22:11:30.809Z,27.00
2022-08-07T22:14:15.067Z,27.00
2022-08-07T22:16:48.370Z,26.98
2022-08-07T22:19:20.119Z,26.98
2022-08-07T22:22:05.343Z,27.01
2022-08-07T22:24:38.786Z,26.96
2022-08-07T22:27:03.642Z,27.06
2022-08-07T22:29:37.931Z,26.99
2022-08-07T22:32:12.671Z,26.88
2022-08-07T22:34:49.465Z,26.96
2022-08-07T22:37:18.208Z,26.90
2022-08-07T22:39:53.466Z,26.88
2022-08-07T22:42:19.031Z,26.87
2022-08-07T22:45:21.758Z,26.83
2022-08-07T22:48:04.270Z,26.84
2022-08-07T22:50:47.676Z,26.85
2022-08-07T22:53:19.986Z,26.79
2022-08-07T22:56:03.091Z,26.83
2022-08-07T22:58:29.250Z,26.86
2022-08-07T23:00:55.941Z,26.89
2022-08-07T23:03:28.258Z,26.79
2022-08-07T23:06:09.520Z,26.69
2022-08-07T23:08:58.541Z,26.72
2022-08-07T23:11:46.034Z,26.67
2022-08-07T23:14:18.938Z,26.56
2022-08-07T23:16:54.931Z,26.53
2022-08-07T23:19:51.302Z,26.56
2022-08-07T23:22:18.394Z,26.48
2022-08-07T23:24:45.529Z,26.49
2022-08-07T23:27:33.644Z,26.49
2022-08-07T23:30:35.866Z,26.40
2022-08-07T23:34:34.332Z,26.37
2022-08-07T23:35:55.099Z,26.36
2022-08-07T23:38:36.901Z,26.29
2022-08-07T23:41:08.693Z,26.30
2022-08-07T23:43:44.572Z,26.27
2022-08-07T23:46:13.631Z,26.15
2022-08-07T23:49:04.413Z,26.17
2022-08-07T23:52:58.661Z,26.16
2022-08-07T23:54:19.849Z,26.08
2022-08-07T23:57:00.625Z,26.04
